Ana Sayfa
METAR-TAF:

METAR-TAF

Havaalanları :

Aransas County Airport

Rockport, Teksas, Amerika Birleşik Devletleri

Enlem: 28-05-01N, Boylam: 097-02-47W, yükseklik: 7 m

Güncel hava durumu gözlemi

Rapor saat 21:53 UTC de 27 dakika önce yapıldı.
Rüzgar güneydan 9 kt ve 16 kt'a kadar ani rüzgarlar
Sıcaklık 31°C
Nem 71%
Basınç 1015 hPa
Görüş mesafesi: 12.9 km
2000 ft yükseklikte parçalı bulutlu
2600 ft yükseklikte parçalı bulutlu

METAR: KRKP 162153Z AUTO 17009G16KT 8SM SCT020 SCT026 31/25 A2997 RMK AO2 SLP150 T03060250

Saat: 17:20 (22:20 UTC)


TAF: eksik

4.000'den fazla havaalanı için hava durumu gözlemleri ve tahminleri (METAR ve TAF raporları).

Kullanılabilir istasyonlar harita üzerinde sarı ve kırmızı noktalarla gösterilir.

İstasyonun adını görmek için fareyi noktanın üzerinde gezdirin.

Sonrasında hava gözlem ve tahminlerini görmek için tıklayın.

Haritayı değiştirmek için: yaklaştırmak için siyah artı işaretli yeşil düğmeye ve uzaklaştırmak için de eksi işaretli düğmeye hızla tıklayın; bitişik haritalar için yeşil okları kullanın.


METAR-TAF: